Terminal Aerodrome Forecast
Issued by NWS

Home | Current Version | Previous Version | Text Only | Print | Product List | Glossary On
Versions: 1 2 3 4 5 6 7 8 9 10 11 12
000
FTPA31 PHFO 192336
TAFHJH
TAF
PHJH 192336Z 2000/2024 04016G24KT P6SM VCSH SCT040 BKN060
     FM200500 04010G16KT P6SM VCSH SCT040 BKN060
     FM202000 05016G24KT P6SM VCSH SCT040 BKN060=

USA.gov is the U.S. government's official web portal to all federal, state and local government web resources and services.